Details From MUCU - Santiago De Cuba Antonio Maceo Intl
To MUHG - Frank Pais Intl
Flight Number -
Tags Generated
Created
Modified
Stats Distance 55 nm / 102 km
Max Altitude 0 ft / 0 m
Waypoints 2
Social Downloads 4
Likes 0
Share VATSIM

Download

Looking for another format? Having issues loading an existing format? Contact us
Advertisement - Login to hide

Notes

Generated

Route

MUCU MUHG

ID Type Via Altitude Latitude Longitude Leg Dist Tot Dist Heading (true) Name
O MUCU APT - 0 ft / 0 m 19.98075˚ -75.83554˚ - 0 nm - -
O MUHG APT - 0 ft / 0 m 20.77545˚ -76.32635˚ 55 nm 55 nm 330° / 330° -

Altitude Profile

Advertisement - Login to hide

MUCU

Details ICAO MUCU (SCU)
Name Santiago de Cuba Antonio Maceo Intl
Region Cuba
Timezone America/Havana (UTC-4.0)
Stats Elevation 249 ft / 76 m (AMSL)
Location 19.972337° -75.835517°
Runways 2
Magnetic Variation 8.446° W

METAR

MUCU 261150Z 03003KT 360V080 9000 SCT020CB BKN070 25/21 Q1013

Decode

TAF

TAF AMD MUCU 261200Z 2612/2712 VRB03KT 9000 SCT020 BKN060 TEMPO 2612/2614 5000 SHRA SCT020CB BECMG 2615/2617 18008KT

Decode

Departure Runways

ID Width Length Bearing (true) Bearing (mag) Surface Threshold Offset Overrun Length
09 148 ft / 45 m 13,107 ft / 3,995 m 89.29° 97.74° Asphalt 985 ft / 300 m 0 ft / 0 m
18 148 ft / 45 m 4,272 ft / 1,302 m 179.40° 187.85° Asphalt 0 ft / 0 m 0 ft / 0 m
27 148 ft / 45 m 13,107 ft / 3,995 m 269.30° 277.75° Asphalt 980 ft / 299 m 340 ft / 104 m
36 148 ft / 45 m 4,272 ft / 1,302 m 359.40° 7.85° Asphalt 0 ft / 0 m 0 ft / 0 m

MUHG

Details ICAO MUHG (HOG)
Name FRANK PAIS INTL
Region Cuba
Timezone America/Havana (UTC-4.0)
Stats Elevation 361 ft / 110 m (AMSL)
Location 20.785554° -76.315108°
Runways 1
Magnetic Variation 8.289° W

METAR

MUHG 261155Z 09004KT 7000 -RA FEW020 BKN080 OVC300 24/22 Q1013

Decode

TAF

Not found

Destination Runways

ID Width Length Bearing (true) Bearing (mag) Surface Threshold Offset Overrun Length
05 148 ft / 45 m 10,642 ft / 3,244 m 46.12° 54.41° Asphalt 328 ft / 100 m 290 ft / 88 m
23 148 ft / 45 m 10,642 ft / 3,244 m 226.12° 234.41° Asphalt 0 ft / 0 m 0 ft / 0 m

Approach Navaids

Runway Type Ident Frequency Range Bearing (true) Bearing (mag) Slope Elevation
05 Localiser IHG 111.30 MHz 18 nm / 33 km 46.13° 54.42° - 361 ft / 110 m (AMSL)
05 Glidescope IHG 111.30 MHz 10 nm / 19 km 46.12° 54.41° 3.00° 361 ft / 110 m (AMSL)

Popular Alternatives